createdAt,value
2023-05-13T00:00:01.220Z,12.30
2023-05-13T00:02:28.414Z,12.40
2023-05-13T00:04:55.591Z,12.30
2023-05-13T00:07:22.690Z,12.30
2023-05-13T00:09:49.808Z,12.40
2023-05-13T00:12:16.812Z,12.40
2023-05-13T00:14:43.883Z,12.40
2023-05-13T00:17:10.947Z,12.60
2023-05-13T00:19:38.026Z,12.60
2023-05-13T00:22:05.154Z,12.70
2023-05-13T00:24:32.187Z,12.60
2023-05-13T00:26:59.249Z,12.70
2023-05-13T00:29:26.352Z,12.60
2023-05-13T00:31:53.390Z,12.50
2023-05-13T00:34:20.542Z,12.50
2023-05-13T00:36:47.771Z,12.50
2023-05-13T00:39:14.829Z,12.60
2023-05-13T00:41:42.135Z,12.60
2023-05-13T00:44:09.190Z,12.60
2023-05-13T00:46:36.393Z,12.40
2023-05-13T00:49:05.219Z,12.20
2023-05-13T00:51:32.874Z,12.00
2023-05-13T00:54:00.484Z,11.70
2023-05-13T00:56:27.631Z,11.50
2023-05-13T00:58:54.730Z,11.50
2023-05-13T01:01:51.861Z,11.50
2023-05-13T01:04:31.197Z,11.60
2023-05-13T01:07:34.254Z,11.60
2023-05-13T01:10:39.521Z,11.60
2023-05-13T01:13:12.787Z,11.60
2023-05-13T01:15:58.632Z,11.70
2023-05-13T01:18:31.470Z,11.70
2023-05-13T01:21:01.434Z,11.60
2023-05-13T01:23:28.450Z,11.60
2023-05-13T01:25:55.483Z,11.60
2023-05-13T01:28:22.953Z,11.50
2023-05-13T01:30:50.149Z,11.30
2023-05-13T01:33:18.307Z,11.20
2023-05-13T01:35:47.517Z,11.10
2023-05-13T01:38:15.732Z,11.10
2023-05-13T01:40:43.219Z,11.00
2023-05-13T01:43:10.376Z,10.90
2023-05-13T01:45:37.774Z,10.80
2023-05-13T01:48:05.064Z,10.70
2023-05-13T01:50:32.176Z,10.60
2023-05-13T01:52:59.310Z,10.60
2023-05-13T01:55:26.343Z,10.50
2023-05-13T01:57:53.580Z,10.50
2023-05-13T02:00:20.950Z,10.50
2023-05-13T02:02:48.380Z,10.50
2023-05-13T02:05:15.636Z,10.50
2023-05-13T02:07:42.779Z,10.50
2023-05-13T02:10:10.318Z,10.50
2023-05-13T02:12:37.432Z,10.50
2023-05-13T02:15:04.787Z,10.50
2023-05-13T02:17:31.919Z,10.50
2023-05-13T02:19:58.986Z,10.60
2023-05-13T02:22:26.196Z,10.60
2023-05-13T02:24:53.461Z,10.60
2023-05-13T02:27:21.057Z,10.60
2023-05-13T02:29:48.083Z,10.50
2023-05-13T02:32:15.141Z,10.60
2023-05-13T02:34:42.189Z,10.50
2023-05-13T02:37:09.415Z,10.50
2023-05-13T02:39:36.400Z,10.50
2023-05-13T02:42:03.480Z,10.40
2023-05-13T02:44:30.598Z,10.40
2023-05-13T02:46:57.622Z,10.40
2023-05-13T02:49:24.604Z,10.30
2023-05-13T02:51:51.645Z,10.30
2023-05-13T02:54:18.671Z,10.30
2023-05-13T02:56:45.938Z,10.20
2023-05-13T02:59:13.032Z,10.10
2023-05-13T03:01:40.242Z,10.00
2023-05-13T03:04:07.388Z,9.90
2023-05-13T03:06:34.465Z,10.00
2023-05-13T03:09:01.544Z,9.80
2023-05-13T03:11:29.095Z,9.90
2023-05-13T03:13:56.142Z,9.80
2023-05-13T03:16:23.209Z,9.80
2023-05-13T03:18:50.420Z,9.80
2023-05-13T03:21:17.544Z,9.70
2023-05-13T03:23:44.751Z,9.60
2023-05-13T03:26:11.914Z,9.50
2023-05-13T03:28:38.990Z,9.50
2023-05-13T03:31:06.423Z,9.50
2023-05-13T03:33:33.553Z,9.30
2023-05-13T03:36:00.622Z,9.30
2023-05-13T03:38:27.707Z,9.30
2023-05-13T03:40:54.793Z,9.30
2023-05-13T03:43:21.795Z,9.30
2023-05-13T03:45:50.708Z,9.20
2023-05-13T03:48:17.785Z,9.20
2023-05-13T03:50:45.913Z,9.20
2023-05-13T03:53:13.039Z,9.10
2023-05-13T03:55:40.126Z,9.20
2023-05-13T03:58:15.060Z,9.40
2023-05-13T04:00:43.558Z,9.50
2023-05-13T04:03:10.975Z,9.50
2023-05-13T04:05:38.061Z,9.40
2023-05-13T04:08:05.363Z,9.40
2023-05-13T04:10:32.391Z,9.40
2023-05-13T04:12:59.463Z,9.40
2023-05-13T04:15:26.523Z,9.40
2023-05-13T04:17:54.157Z,9.40
2023-05-13T04:20:21.445Z,9.50
2023-05-13T04:22:48.996Z,9.70
2023-05-13T04:25:16.183Z,10.00
2023-05-13T04:27:44.022Z,10.20
2023-05-13T04:30:11.599Z,10.30
2023-05-13T04:32:39.388Z,10.30
2023-05-13T04:35:08.288Z,10.30
2023-05-13T04:37:35.320Z,10.50
2023-05-13T04:40:02.505Z,10.80
2023-05-13T04:42:29.529Z,11.10
2023-05-13T04:44:56.769Z,11.30
2023-05-13T04:47:23.893Z,11.40
2023-05-13T04:49:51.097Z,11.60
2023-05-13T04:52:19.684Z,11.60
2023-05-13T04:54:46.788Z,11.60
2023-05-13T04:57:13.899Z,11.50
2023-05-13T04:59:40.934Z,11.50
2023-05-13T05:02:08.077Z,11.60
2023-05-13T05:04:35.396Z,11.70
2023-05-13T05:07:02.461Z,12.00
2023-05-13T05:09:30.397Z,12.40
2023-05-13T05:11:57.396Z,12.90
2023-05-13T05:14:24.491Z,13.40
2023-05-13T05:16:51.980Z,13.80
2023-05-13T05:19:24.170Z,14.10
2023-05-13T05:21:52.477Z,14.40
2023-05-13T05:24:19.942Z,14.60
2023-05-13T05:26:46.995Z,14.80
2023-05-13T05:29:14.120Z,14.80
2023-05-13T05:31:41.425Z,14.80
2023-05-13T05:34:08.764Z,15.10
2023-05-13T05:36:38.099Z,15.50
2023-05-13T05:39:05.463Z,15.80
2023-05-13T05:41:33.327Z,15.70
2023-05-13T05:44:00.552Z,15.50
2023-05-13T05:46:28.539Z,16.00
2023-05-13T05:48:55.709Z,16.50
2023-05-13T05:51:22.816Z,17.10
2023-05-13T05:53:49.856Z,17.40
2023-05-13T05:56:16.913Z,17.70
2023-05-13T05:58:43.999Z,17.50
2023-05-13T06:01:11.085Z,17.00
2023-05-13T06:03:38.426Z,16.70
2023-05-13T06:06:05.724Z,17.00
2023-05-13T06:08:32.771Z,17.70
2023-05-13T06:10:59.944Z,18.00
2023-05-13T06:13:26.977Z,18.50
2023-05-13T06:15:54.677Z,18.70
2023-05-13T06:18:21.954Z,18.90
2023-05-13T06:20:49.050Z,18.40
2023-05-13T06:23:16.265Z,18.40
2023-05-13T06:25:43.308Z,18.20
2023-05-13T06:28:12.251Z,18.10
2023-05-13T06:30:39.395Z,18.30
2023-05-13T06:33:08.434Z,18.20
2023-05-13T06:35:35.443Z,18.00
2023-05-13T06:38:02.568Z,18.20
2023-05-13T06:40:29.610Z,18.00
2023-05-13T06:42:56.712Z,18.20
2023-05-13T06:45:25.980Z,18.40
2023-05-13T06:47:53.861Z,19.50
2023-05-13T06:50:21.214Z,19.80
2023-05-13T06:52:48.953Z,20.10
2023-05-13T06:55:16.855Z,20.50
2023-05-13T06:57:46.942Z,21.00
2023-05-13T07:00:15.501Z,20.90
2023-05-13T07:02:42.707Z,20.60
2023-05-13T07:05:11.500Z,20.90
2023-05-13T07:07:39.141Z,21.20
2023-05-13T07:10:06.426Z,21.80
2023-05-13T07:12:33.710Z,22.00
2023-05-13T07:15:00.795Z,22.20
2023-05-13T07:17:28.001Z,22.70
2023-05-13T07:19:55.072Z,22.50
2023-05-13T07:22:22.132Z,22.00
2023-05-13T07:24:49.220Z,21.10
2023-05-13T07:27:16.870Z,20.20
2023-05-13T07:29:43.846Z,19.80
2023-05-13T07:32:10.934Z,19.50
2023-05-13T07:34:38.383Z,19.80
2023-05-13T07:37:05.936Z,19.90
2023-05-13T07:39:32.997Z,20.80
2023-05-13T07:42:00.888Z,21.60
2023-05-13T07:44:27.978Z,21.00
2023-05-13T07:46:55.182Z,20.90
2023-05-13T07:49:22.330Z,21.10
2023-05-13T07:51:49.441Z,21.10
2023-05-13T07:54:16.484Z,20.90
2023-05-13T07:56:44.496Z,20.60
2023-05-13T07:59:11.675Z,20.90
2023-05-13T08:01:38.929Z,20.60
2023-05-13T08:04:06.307Z,20.90
2023-05-13T08:06:33.630Z,21.20
2023-05-13T08:09:01.799Z,21.10
2023-05-13T08:11:29.727Z,21.00
2023-05-13T08:13:56.797Z,20.80
2023-05-13T08:16:23.915Z,20.40
2023-05-13T08:18:51.516Z,20.10
2023-05-13T08:21:18.643Z,20.30
2023-05-13T08:23:46.260Z,20.20
2023-05-13T08:26:14.052Z,20.10
2023-05-13T08:28:42.558Z,20.30
2023-05-13T08:31:12.473Z,20.70
2023-05-13T08:33:41.948Z,20.40
2023-05-13T08:36:09.936Z,20.40
2023-05-13T08:38:37.014Z,20.50
2023-05-13T08:41:08.022Z,20.10
2023-05-13T08:43:38.249Z,20.50
2023-05-13T08:46:09.241Z,20.10
2023-05-13T08:48:38.531Z,20.20
2023-05-13T08:51:06.728Z,20.00
2023-05-13T08:53:35.374Z,19.80
2023-05-13T08:56:02.694Z,20.10
2023-05-13T08:58:29.882Z,20.60
2023-05-13T09:00:58.092Z,20.60
2023-05-13T09:03:27.865Z,20.80
2023-05-13T09:05:54.962Z,21.00
2023-05-13T09:08:22.088Z,20.90
2023-05-13T09:10:49.456Z,20.70
2023-05-13T09:13:18.290Z,20.70
2023-05-13T09:15:46.030Z,20.80
2023-05-13T09:18:17.223Z,20.80
2023-05-13T09:20:45.991Z,20.50
2023-05-13T09:23:14.115Z,20.50
2023-05-13T09:25:41.244Z,20.50
2023-05-13T09:28:08.768Z,20.60
2023-05-13T09:30:43.303Z,20.80
2023-05-13T09:33:16.424Z,21.00
2023-05-13T09:35:53.011Z,21.10
2023-05-13T09:38:29.275Z,21.40
2023-05-13T09:40:59.038Z,21.50
2023-05-13T09:43:31.418Z,21.50
2023-05-13T09:46:03.431Z,21.40
2023-05-13T09:48:33.203Z,21.20
2023-05-13T09:51:00.364Z,20.90
2023-05-13T09:53:28.691Z,20.50
2023-05-13T09:55:57.484Z,20.20
2023-05-13T09:58:26.515Z,19.90
2023-05-13T10:00:53.845Z,19.60
2023-05-13T10:03:21.815Z,19.50
2023-05-13T10:05:50.226Z,19.10
2023-05-13T10:08:18.443Z,18.90
2023-05-13T10:10:47.670Z,18.60
2023-05-13T10:13:18.289Z,18.40
2023-05-13T10:15:53.236Z,18.30
2023-05-13T10:18:21.755Z,18.10
2023-05-13T10:20:53.677Z,18.00
2023-05-13T10:23:22.836Z,17.90
2023-05-13T10:25:52.073Z,17.70
2023-05-13T10:28:20.419Z,17.50
2023-05-13T10:30:50.197Z,17.30
2023-05-13T10:33:17.581Z,17.10
2023-05-13T10:36:09.677Z,17.00
2023-05-13T10:38:51.429Z,17.00
2023-05-13T10:41:57.044Z,17.00
2023-05-13T10:44:24.796Z,16.90
2023-05-13T10:46:52.152Z,16.80
2023-05-13T10:49:19.254Z,16.80
2023-05-13T10:51:48.915Z,16.90
2023-05-13T10:54:23.560Z,16.50
2023-05-13T10:56:57.796Z,16.20
2023-05-13T10:59:25.094Z,15.80
2023-05-13T11:01:52.146Z,15.00
2023-05-13T11:04:21.733Z,14.50
2023-05-13T11:06:50.899Z,14.30
2023-05-13T11:09:21.051Z,14.20
2023-05-13T11:11:58.850Z,14.20
2023-05-13T11:14:27.643Z,14.90
2023-05-13T11:17:04.594Z,15.40
2023-05-13T11:19:35.780Z,15.60
2023-05-13T11:22:13.272Z,16.10
2023-05-13T11:24:41.692Z,16.80
2023-05-13T11:27:21.669Z,17.10
2023-05-13T11:29:55.276Z,17.40
2023-05-13T11:32:52.528Z,17.50
2023-05-13T11:35:23.807Z,17.30
2023-05-13T11:37:51.457Z,17.10
2023-05-13T11:40:33.020Z,17.10
2023-05-13T11:43:01.378Z,17.60
2023-05-13T11:45:29.673Z,17.60
2023-05-13T11:47:57.668Z,17.80
2023-05-13T11:50:30.376Z,18.20
2023-05-13T11:53:01.711Z,18.70
2023-05-13T11:55:35.433Z,18.60
2023-05-13T11:58:03.179Z,19.10
2023-05-13T12:00:35.679Z,18.90
2023-05-13T12:03:10.559Z,18.80
2023-05-13T12:05:41.219Z,18.50
2023-05-13T12:08:12.300Z,18.10
2023-05-13T12:10:45.674Z,18.00
2023-05-13T12:13:13.148Z,17.60
2023-05-13T12:15:41.496Z,17.10
2023-05-13T12:18:08.814Z,16.80
2023-05-13T12:20:36.311Z,16.70
2023-05-13T12:23:04.693Z,16.60
2023-05-13T12:25:53.853Z,16.80
2023-05-13T12:28:25.878Z,16.90
2023-05-13T12:31:01.217Z,17.30
2023-05-13T12:33:47.062Z,17.60
2023-05-13T12:36:20.159Z,17.50
2023-05-13T12:39:00.205Z,17.70
2023-05-13T12:41:30.109Z,17.60
2023-05-13T12:44:15.233Z,17.50
2023-05-13T12:46:55.721Z,17.60
2023-05-13T12:49:23.564Z,18.20
2023-05-13T12:51:52.224Z,19.50
2023-05-13T12:54:19.990Z,20.00
2023-05-13T12:56:47.225Z,19.90
2023-05-13T12:59:14.726Z,19.70
2023-05-13T13:01:43.116Z,19.50
2023-05-13T13:04:10.426Z,19.30
2023-05-13T13:06:37.753Z,18.90
2023-05-13T13:09:06.085Z,18.50
2023-05-13T13:11:33.302Z,18.30
2023-05-13T13:14:00.452Z,18.20
2023-05-13T13:16:27.631Z,18.30
2023-05-13T13:18:59.043Z,18.60
2023-05-13T13:21:27.873Z,18.80
2023-05-13T13:23:54.940Z,19.00
2023-05-13T13:26:23.308Z,19.40
2023-05-13T13:28:50.398Z,19.40
2023-05-13T13:31:17.637Z,19.50
2023-05-13T13:33:44.701Z,19.70
2023-05-13T13:36:11.707Z,19.60
2023-05-13T13:38:38.736Z,19.50
2023-05-13T13:41:06.344Z,19.20
2023-05-13T13:43:33.532Z,19.10
2023-05-13T13:46:01.434Z,19.00
2023-05-13T13:48:28.825Z,18.70
2023-05-13T13:50:56.038Z,18.20
2023-05-13T13:53:23.165Z,17.80
2023-05-13T13:55:50.403Z,17.00
2023-05-13T13:58:17.549Z,16.00
2023-05-13T14:00:44.896Z,15.40
2023-05-13T14:03:16.563Z,14.70
2023-05-13T14:05:43.849Z,13.60
2023-05-13T14:08:11.991Z,13.10
2023-05-13T14:10:39.464Z,13.10
2023-05-13T14:13:06.826Z,13.30
2023-05-13T14:15:34.020Z,13.30
2023-05-13T14:18:01.145Z,13.40
2023-05-13T14:20:29.195Z,13.40
2023-05-13T14:22:56.722Z,13.40
2023-05-13T14:25:23.827Z,13.40
2023-05-13T14:27:50.954Z,13.50
2023-05-13T14:30:17.933Z,13.60
2023-05-13T14:32:47.637Z,13.70
2023-05-13T14:35:14.811Z,13.90
2023-05-13T14:37:42.791Z,14.00
2023-05-13T14:40:10.246Z,14.20
2023-05-13T14:42:37.313Z,14.40
2023-05-13T14:45:05.121Z,14.50
2023-05-13T14:47:32.403Z,14.50
2023-05-13T14:49:59.419Z,14.10
2023-05-13T14:52:26.510Z,13.70
2023-05-13T14:54:54.339Z,13.50
2023-05-13T14:57:21.474Z,13.50
2023-05-13T14:59:48.568Z,13.70
2023-05-13T15:02:17.358Z,14.00
2023-05-13T15:04:44.872Z,14.20
2023-05-13T15:07:12.064Z,14.30
2023-05-13T15:09:43.444Z,14.30
2023-05-13T15:12:12.076Z,14.30
2023-05-13T15:14:39.182Z,14.20
2023-05-13T15:17:10.754Z,14.10
2023-05-13T15:19:39.197Z,14.00
2023-05-13T15:22:08.651Z,14.00
2023-05-13T15:24:35.712Z,14.00
2023-05-13T15:27:03.861Z,14.10
2023-05-13T15:29:30.971Z,14.20
2023-05-13T15:31:58.733Z,14.20
2023-05-13T15:34:25.891Z,14.30
2023-05-13T15:36:53.209Z,14.40
2023-05-13T15:39:20.239Z,14.50
2023-05-13T15:41:48.255Z,14.50
2023-05-13T15:44:15.423Z,14.70
2023-05-13T15:46:42.758Z,14.80
2023-05-13T15:49:09.835Z,15.00
2023-05-13T15:51:36.898Z,15.10
2023-05-13T15:54:04.089Z,15.20
2023-05-13T15:56:31.156Z,15.20
2023-05-13T15:58:58.182Z,15.10
2023-05-13T16:01:25.346Z,15.10
2023-05-13T16:03:52.409Z,15.10
2023-05-13T16:06:19.448Z,15.30
2023-05-13T16:08:46.555Z,15.40
2023-05-13T16:11:13.646Z,15.40
2023-05-13T16:13:41.029Z,15.30
2023-05-13T16:16:08.103Z,15.20
2023-05-13T16:18:35.152Z,15.20
2023-05-13T16:21:02.282Z,15.30
2023-05-13T16:23:29.275Z,15.60
2023-05-13T16:25:56.335Z,15.90
2023-05-13T16:28:23.376Z,16.30
2023-05-13T16:30:51.515Z,16.40
2023-05-13T16:33:18.594Z,16.50
2023-05-13T16:35:45.732Z,16.60
2023-05-13T16:38:12.766Z,16.80
2023-05-13T16:40:39.859Z,17.00
2023-05-13T16:43:06.902Z,17.10
2023-05-13T16:45:34.042Z,17.10
2023-05-13T16:48:01.174Z,17.20
2023-05-13T16:50:28.363Z,17.20
2023-05-13T16:52:55.536Z,17.10
2023-05-13T16:55:22.728Z,16.70
2023-05-13T16:57:52.448Z,16.60
2023-05-13T17:00:24.955Z,16.60
2023-05-13T17:02:52.411Z,16.70
2023-05-13T17:05:19.508Z,16.70
2023-05-13T17:07:46.636Z,16.80
2023-05-13T17:10:15.259Z,16.60
2023-05-13T17:12:42.369Z,16.60
2023-05-13T17:15:09.704Z,16.70
2023-05-13T17:17:36.912Z,16.70
2023-05-13T17:20:05.549Z,16.60
2023-05-13T17:22:32.645Z,16.40
2023-05-13T17:24:59.802Z,16.20
2023-05-13T17:27:27.216Z,16.00
2023-05-13T17:29:55.823Z,15.90
2023-05-13T17:32:24.425Z,15.80
2023-05-13T17:34:51.524Z,15.60
2023-05-13T17:37:18.578Z,15.50
2023-05-13T17:39:45.701Z,15.40
2023-05-13T17:42:13.259Z,15.40
2023-05-13T17:44:40.462Z,15.40
2023-05-13T17:47:07.521Z,15.40
2023-05-13T17:49:34.650Z,15.40
2023-05-13T17:52:01.662Z,15.40
2023-05-13T17:54:28.861Z,15.40
2023-05-13T17:56:55.923Z,15.40
2023-05-13T17:59:22.976Z,15.30
2023-05-13T18:01:50.080Z,15.30
2023-05-13T18:04:17.432Z,15.20
2023-05-13T18:06:44.770Z,15.20
2023-05-13T18:09:12.538Z,15.10
2023-05-13T18:11:39.611Z,15.10
2023-05-13T18:14:07.100Z,15.00
2023-05-13T18:16:34.325Z,15.00
2023-05-13T18:19:01.758Z,14.90
2023-05-13T18:21:33.475Z,14.90
2023-05-13T18:24:00.548Z,14.80
2023-05-13T18:26:31.914Z,14.80
2023-05-13T18:28:59.001Z,14.80
2023-05-13T18:31:26.106Z,14.80
2023-05-13T18:33:53.447Z,14.80
2023-05-13T18:36:21.892Z,14.80
2023-05-13T18:38:49.460Z,14.80
2023-05-13T18:41:16.642Z,14.80
2023-05-13T18:43:43.728Z,14.80
2023-05-13T18:46:11.805Z,14.80
2023-05-13T18:48:39.167Z,14.80
2023-05-13T18:51:06.267Z,14.80
2023-05-13T18:53:33.320Z,14.70
2023-05-13T18:56:00.432Z,14.70
2023-05-13T18:58:32.154Z,14.70
2023-05-13T19:00:59.228Z,14.60
2023-05-13T19:03:27.171Z,14.60
2023-05-13T19:05:54.949Z,14.60
2023-05-13T19:08:23.056Z,14.50
2023-05-13T19:10:50.300Z,14.50
2023-05-13T19:13:19.962Z,14.40
2023-05-13T19:15:47.115Z,14.40
2023-05-13T19:18:14.459Z,14.40
2023-05-13T19:20:41.835Z,14.30
2023-05-13T19:23:08.925Z,14.10
2023-05-13T19:25:38.083Z,14.00
2023-05-13T19:28:05.086Z,13.90
2023-05-13T19:30:32.259Z,13.90
2023-05-13T19:32:59.788Z,13.80
2023-05-13T19:35:26.886Z,13.70
2023-05-13T19:37:54.071Z,13.60
2023-05-13T19:40:21.315Z,13.60
2023-05-13T19:42:49.490Z,13.50
2023-05-13T19:45:22.056Z,13.40
2023-05-13T19:47:49.705Z,13.30
2023-05-13T19:50:17.225Z,13.20
2023-05-13T19:52:44.419Z,13.20
2023-05-13T19:55:11.894Z,13.10
2023-05-13T19:57:43.058Z,13.10
2023-05-13T20:00:12.081Z,13.00
2023-05-13T20:02:40.120Z,13.00
2023-05-13T20:05:11.066Z,13.00
2023-05-13T20:07:38.093Z,13.00
2023-05-13T20:10:06.325Z,13.00
2023-05-13T20:12:33.425Z,13.00
2023-05-13T20:15:01.300Z,13.00
2023-05-13T20:17:28.562Z,13.10
2023-05-13T20:19:55.956Z,13.10
2023-05-13T20:22:23.282Z,13.10
2023-05-13T20:24:54.506Z,13.10
2023-05-13T20:27:21.773Z,13.10
2023-05-13T20:29:49.438Z,13.00
2023-05-13T20:32:18.630Z,13.00
2023-05-13T20:34:47.060Z,13.00
2023-05-13T20:37:16.908Z,12.90
2023-05-13T20:39:44.085Z,12.90
2023-05-13T20:42:11.584Z,12.80
2023-05-13T20:44:39.934Z,12.80
2023-05-13T20:47:07.100Z,12.60
2023-05-13T20:49:34.431Z,12.50
2023-05-13T20:52:07.686Z,12.50
2023-05-13T20:54:37.291Z,12.40
2023-05-13T20:57:04.703Z,12.40
2023-05-13T20:59:31.772Z,12.40
2023-05-13T21:01:59.095Z,12.40
2023-05-13T21:04:26.298Z,12.30
2023-05-13T21:06:53.775Z,12.30
2023-05-13T21:09:20.848Z,12.20
2023-05-13T21:11:47.995Z,12.00
2023-05-13T21:14:15.168Z,11.90
2023-05-13T21:16:42.704Z,11.90
2023-05-13T21:19:21.742Z,11.90
2023-05-13T21:21:49.183Z,11.90
2023-05-13T21:24:20.032Z,11.80
2023-05-13T21:26:47.539Z,11.70
2023-05-13T21:29:15.472Z,11.70
2023-05-13T21:31:43.605Z,11.60
2023-05-13T21:34:10.747Z,11.60
2023-05-13T21:36:39.130Z,11.60
2023-05-13T21:39:07.819Z,11.50
2023-05-13T21:41:35.898Z,11.50
2023-05-13T21:44:03.027Z,11.40
2023-05-13T21:46:30.201Z,11.40
2023-05-13T21:48:58.678Z,11.50
2023-05-13T21:51:25.911Z,11.60
2023-05-13T21:53:53.022Z,11.40
2023-05-13T21:56:20.075Z,11.40
2023-05-13T21:58:47.235Z,11.30
2023-05-13T22:01:14.444Z,11.10
2023-05-13T22:03:42.243Z,11.10
2023-05-13T22:06:09.258Z,11.00
2023-05-13T22:08:36.408Z,10.80
2023-05-13T22:11:03.528Z,10.80
2023-05-13T22:13:30.579Z,10.70
2023-05-13T22:15:57.699Z,10.70
2023-05-13T22:18:25.083Z,10.70
2023-05-13T22:20:52.447Z,10.80
2023-05-13T22:23:19.476Z,10.70
2023-05-13T22:25:46.488Z,10.70
2023-05-13T22:28:13.556Z,10.70
2023-05-13T22:30:40.787Z,10.60
2023-05-13T22:33:07.939Z,10.60
2023-05-13T22:35:36.659Z,10.50
2023-05-13T22:38:04.489Z,10.60
2023-05-13T22:40:31.604Z,10.60
2023-05-13T22:42:58.668Z,10.50
2023-05-13T22:45:25.818Z,10.40
2023-05-13T22:47:53.005Z,10.40
2023-05-13T22:50:20.195Z,10.40
2023-05-13T22:52:47.647Z,10.30
2023-05-13T22:55:14.708Z,10.20
2023-05-13T22:57:41.780Z,10.20
2023-05-13T23:00:09.480Z,10.10
2023-05-13T23:02:36.577Z,10.00
2023-05-13T23:05:03.665Z,10.10
2023-05-13T23:07:30.885Z,10.10
2023-05-13T23:09:58.152Z,10.20
2023-05-13T23:12:25.366Z,10.20
2023-05-13T23:14:52.510Z,10.10
2023-05-13T23:17:19.605Z,10.00
2023-05-13T23:19:46.645Z,10.00
2023-05-13T23:22:13.742Z,10.00
2023-05-13T23:24:40.796Z,10.00
2023-05-13T23:27:08.927Z,10.00
2023-05-13T23:29:36.420Z,10.00
2023-05-13T23:32:05.914Z,10.00
2023-05-13T23:34:34.162Z,10.00
2023-05-13T23:37:01.250Z,9.90
2023-05-13T23:39:28.281Z,9.90
2023-05-13T23:41:55.428Z,9.80
2023-05-13T23:44:22.472Z,9.70
2023-05-13T23:46:49.854Z,9.60
2023-05-13T23:49:17.763Z,9.60
2023-05-13T23:51:44.826Z,9.60
2023-05-13T23:54:11.856Z,9.60
2023-05-13T23:56:38.963Z,9.60
2023-05-13T23:59:06.119Z,9.60
